sensor_id;sensor_type;location;lat;lon;timestamp;P1;durP1;ratioP1;P2;durP2;ratioP2
73585;SDS011;61865;50.232;18.614;2023-02-08T00:01:56;70.45;;;34.58;;
73585;SDS011;61865;50.232;18.614;2023-02-08T00:04:20;76.85;;;34.92;;
73585;SDS011;61865;50.232;18.614;2023-02-08T00:06:42;64.40;;;35.25;;
73585;SDS011;61865;50.232;18.614;2023-02-08T00:09:04;64.35;;;32.40;;
73585;SDS011;61865;50.232;18.614;2023-02-08T00:11:26;60.38;;;32.72;;
73585;SDS011;61865;50.232;18.614;2023-02-08T00:13:48;67.93;;;34.67;;
73585;SDS011;61865;50.232;18.614;2023-02-08T00:16:10;67.40;;;33.95;;
73585;SDS011;61865;50.232;18.614;2023-02-08T00:18:33;64.32;;;32.35;;
73585;SDS011;61865;50.232;18.614;2023-02-08T00:20:56;62.28;;;33.10;;
73585;SDS011;61865;50.232;18.614;2023-02-08T00:23:18;64.47;;;33.88;;
73585;SDS011;61865;50.232;18.614;2023-02-08T00:25:40;66.50;;;36.13;;
73585;SDS011;61865;50.232;18.614;2023-02-08T00:28:02;63.47;;;34.03;;
73585;SDS011;61865;50.232;18.614;2023-02-08T00:30:25;60.22;;;32.15;;
73585;SDS011;61865;50.232;18.614;2023-02-08T00:32:47;68.00;;;34.03;;
73585;SDS011;61865;50.232;18.614;2023-02-08T00:35:09;66.00;;;34.72;;
73585;SDS011;61865;50.232;18.614;2023-02-08T00:37:32;62.35;;;34.58;;
73585;SDS011;61865;50.232;18.614;2023-02-08T00:39:54;69.50;;;32.95;;
73585;SDS011;61865;50.232;18.614;2023-02-08T00:42:17;61.83;;;34.22;;
73585;SDS011;61865;50.232;18.614;2023-02-08T00:44:39;75.38;;;36.13;;
73585;SDS011;61865;50.232;18.614;2023-02-08T00:47:01;63.30;;;32.78;;
73585;SDS011;61865;50.232;18.614;2023-02-08T00:49:23;63.30;;;33.42;;
73585;SDS011;61865;50.232;18.614;2023-02-08T00:51:45;71.07;;;34.55;;
73585;SDS011;61865;50.232;18.614;2023-02-08T00:54:11;71.00;;;34.38;;
73585;SDS011;61865;50.232;18.614;2023-02-08T00:56:34;71.35;;;34.15;;
73585;SDS011;61865;50.232;18.614;2023-02-08T00:58:56;74.43;;;41.92;;
73585;SDS011;61865;50.232;18.614;2023-02-08T01:01:18;78.55;;;38.10;;
73585;SDS011;61865;50.232;18.614;2023-02-08T01:03:40;65.03;;;34.20;;
73585;SDS011;61865;50.232;18.614;2023-02-08T01:06:03;61.05;;;33.40;;
73585;SDS011;61865;50.232;18.614;2023-02-08T01:08:26;64.18;;;32.38;;
73585;SDS011;61865;50.232;18.614;2023-02-08T01:10:50;62.00;;;30.02;;
73585;SDS011;61865;50.232;18.614;2023-02-08T01:13:12;60.95;;;30.88;;
73585;SDS011;61865;50.232;18.614;2023-02-08T01:15:34;58.83;;;32.65;;
73585;SDS011;61865;50.232;18.614;2023-02-08T01:17:56;63.58;;;32.58;;
73585;SDS011;61865;50.232;18.614;2023-02-08T01:20:18;63.72;;;33.40;;
73585;SDS011;61865;50.232;18.614;2023-02-08T01:22:40;67.05;;;32.85;;
73585;SDS011;61865;50.232;18.614;2023-02-08T01:25:02;57.97;;;32.78;;
73585;SDS011;61865;50.232;18.614;2023-02-08T01:27:25;69.40;;;33.80;;
73585;SDS011;61865;50.232;18.614;2023-02-08T01:29:47;67.18;;;33.03;;
73585;SDS011;61865;50.232;18.614;2023-02-08T01:32:09;58.50;;;33.10;;
73585;SDS011;61865;50.232;18.614;2023-02-08T01:34:31;65.45;;;34.92;;
73585;SDS011;61865;50.232;18.614;2023-02-08T01:36:53;68.22;;;31.85;;
73585;SDS011;61865;50.232;18.614;2023-02-08T01:39:15;71.47;;;32.95;;
73585;SDS011;61865;50.232;18.614;2023-02-08T01:41:37;63.40;;;31.90;;
73585;SDS011;61865;50.232;18.614;2023-02-08T01:44:05;57.47;;;29.85;;
73585;SDS011;61865;50.232;18.614;2023-02-08T01:46:29;54.55;;;31.65;;
73585;SDS011;61865;50.232;18.614;2023-02-08T01:48:52;60.67;;;29.90;;
73585;SDS011;61865;50.232;18.614;2023-02-08T01:51:16;60.38;;;30.80;;
73585;SDS011;61865;50.232;18.614;2023-02-08T01:53:40;72.25;;;33.33;;
73585;SDS011;61865;50.232;18.614;2023-02-08T01:56:04;58.70;;;32.22;;
73585;SDS011;61865;50.232;18.614;2023-02-08T01:58:33;59.35;;;33.60;;
73585;SDS011;61865;50.232;18.614;2023-02-08T02:01:00;67.85;;;33.95;;
73585;SDS011;61865;50.232;18.614;2023-02-08T02:03:23;61.78;;;30.98;;
73585;SDS011;61865;50.232;18.614;2023-02-08T02:05:46;66.78;;;33.60;;
73585;SDS011;61865;50.232;18.614;2023-02-08T02:08:10;56.35;;;32.35;;
73585;SDS011;61865;50.232;18.614;2023-02-08T02:10:33;62.25;;;32.83;;
73585;SDS011;61865;50.232;18.614;2023-02-08T02:12:59;66.28;;;33.90;;
73585;SDS011;61865;50.232;18.614;2023-02-08T02:15:24;56.88;;;32.30;;
73585;SDS011;61865;50.232;18.614;2023-02-08T02:17:47;63.53;;;32.25;;
73585;SDS011;61865;50.232;18.614;2023-02-08T02:20:13;63.97;;;32.65;;
73585;SDS011;61865;50.232;18.614;2023-02-08T02:22:54;56.60;;;31.33;;
73585;SDS011;61865;50.232;18.614;2023-02-08T02:29:00;46.50;;;28.13;;
73585;SDS011;61865;50.232;18.614;2023-02-08T02:31:48;60.50;;;29.98;;
73585;SDS011;61865;50.232;18.614;2023-02-08T02:34:22;61.97;;;32.25;;
73585;SDS011;61865;50.232;18.614;2023-02-08T02:36:51;61.55;;;31.13;;
73585;SDS011;61865;50.232;18.614;2023-02-08T02:39:22;62.22;;;29.90;;
73585;SDS011;61865;50.232;18.614;2023-02-08T02:41:53;55.42;;;31.02;;
73585;SDS011;61865;50.232;18.614;2023-02-08T02:44:41;57.63;;;31.23;;
73585;SDS011;61865;50.232;18.614;2023-02-08T02:47:11;55.67;;;31.65;;
73585;SDS011;61865;50.232;18.614;2023-02-08T02:49:43;55.47;;;30.05;;
73585;SDS011;61865;50.232;18.614;2023-02-08T02:52:10;58.47;;;31.13;;
73585;SDS011;61865;50.232;18.614;2023-02-08T02:54:37;70.18;;;31.70;;
73585;SDS011;61865;50.232;18.614;2023-02-08T02:57:02;66.90;;;31.75;;
73585;SDS011;61865;50.232;18.614;2023-02-08T02:59:26;59.80;;;31.35;;
73585;SDS011;61865;50.232;18.614;2023-02-08T03:01:48;58.50;;;30.05;;
73585;SDS011;61865;50.232;18.614;2023-02-08T03:04:16;54.42;;;30.73;;
73585;SDS011;61865;50.232;18.614;2023-02-08T03:06:40;58.30;;;30.05;;
73585;SDS011;61865;50.232;18.614;2023-02-08T03:09:24;48.05;;;27.00;;
73585;SDS011;61865;50.232;18.614;2023-02-08T03:12:01;52.33;;;27.95;;
73585;SDS011;61865;50.232;18.614;2023-02-08T03:14:33;51.20;;;27.70;;
73585;SDS011;61865;50.232;18.614;2023-02-08T03:17:12;57.25;;;26.83;;
73585;SDS011;61865;50.232;18.614;2023-02-08T03:19:47;54.05;;;28.45;;
73585;SDS011;61865;50.232;18.614;2023-02-08T03:22:18;53.20;;;29.15;;
73585;SDS011;61865;50.232;18.614;2023-02-08T03:24:48;57.75;;;30.88;;
73585;SDS011;61865;50.232;18.614;2023-02-08T03:27:15;54.53;;;28.73;;
73585;SDS011;61865;50.232;18.614;2023-02-08T03:29:43;60.65;;;29.15;;
73585;SDS011;61865;50.232;18.614;2023-02-08T03:32:16;54.00;;;28.92;;
73585;SDS011;61865;50.232;18.614;2023-02-08T03:34:41;52.30;;;27.73;;
73585;SDS011;61865;50.232;18.614;2023-02-08T03:37:09;56.08;;;29.08;;
73585;SDS011;61865;50.232;18.614;2023-02-08T03:39:36;53.25;;;29.17;;
73585;SDS011;61865;50.232;18.614;2023-02-08T03:42:00;52.10;;;28.95;;
73585;SDS011;61865;50.232;18.614;2023-02-08T03:44:27;54.22;;;30.15;;
73585;SDS011;61865;50.232;18.614;2023-02-08T03:46:53;53.10;;;28.20;;
73585;SDS011;61865;50.232;18.614;2023-02-08T03:49:21;61.08;;;29.90;;
73585;SDS011;61865;50.232;18.614;2023-02-08T03:51:48;59.47;;;28.67;;
73585;SDS011;61865;50.232;18.614;2023-02-08T03:54:12;56.25;;;28.38;;
73585;SDS011;61865;50.232;18.614;2023-02-08T03:56:39;52.60;;;27.98;;
73585;SDS011;61865;50.232;18.614;2023-02-08T03:59:06;59.65;;;29.48;;
73585;SDS011;61865;50.232;18.614;2023-02-08T04:01:35;58.90;;;29.77;;
73585;SDS011;61865;50.232;18.614;2023-02-08T04:04:03;54.25;;;30.83;;
73585;SDS011;61865;50.232;18.614;2023-02-08T04:06:25;56.85;;;32.35;;
73585;SDS011;61865;50.232;18.614;2023-02-08T04:08:49;59.47;;;30.02;;
73585;SDS011;61865;50.232;18.614;2023-02-08T04:11:11;51.78;;;30.27;;
73585;SDS011;61865;50.232;18.614;2023-02-08T04:13:33;59.70;;;32.63;;
73585;SDS011;61865;50.232;18.614;2023-02-08T04:15:55;60.15;;;30.45;;
73585;SDS011;61865;50.232;18.614;2023-02-08T04:18:17;59.67;;;31.10;;
73585;SDS011;61865;50.232;18.614;2023-02-08T04:20:39;51.60;;;29.20;;
73585;SDS011;61865;50.232;18.614;2023-02-08T04:23:01;59.78;;;30.95;;
73585;SDS011;61865;50.232;18.614;2023-02-08T04:25:24;64.13;;;32.60;;
73585;SDS011;61865;50.232;18.614;2023-02-08T04:27:46;57.83;;;31.23;;
73585;SDS011;61865;50.232;18.614;2023-02-08T04:30:08;63.10;;;33.00;;
73585;SDS011;61865;50.232;18.614;2023-02-08T04:32:32;64.93;;;31.88;;
73585;SDS011;61865;50.232;18.614;2023-02-08T04:34:54;53.97;;;32.35;;
73585;SDS011;61865;50.232;18.614;2023-02-08T04:37:16;66.78;;;34.05;;
73585;SDS011;61865;50.232;18.614;2023-02-08T04:39:38;73.93;;;37.70;;
73585;SDS011;61865;50.232;18.614;2023-02-08T04:42:01;63.33;;;36.10;;
73585;SDS011;61865;50.232;18.614;2023-02-08T04:44:23;64.45;;;35.63;;
73585;SDS011;61865;50.232;18.614;2023-02-08T04:46:46;72.15;;;38.35;;
73585;SDS011;61865;50.232;18.614;2023-02-08T04:49:08;64.28;;;35.38;;
73585;SDS011;61865;50.232;18.614;2023-02-08T04:51:30;64.13;;;35.85;;
73585;SDS011;61865;50.232;18.614;2023-02-08T04:53:51;66.80;;;35.15;;
73585;SDS011;61865;50.232;18.614;2023-02-08T04:56:13;74.90;;;34.85;;
73585;SDS011;61865;50.232;18.614;2023-02-08T04:58:36;72.43;;;34.30;;
73585;SDS011;61865;50.232;18.614;2023-02-08T05:00:58;61.35;;;34.00;;
73585;SDS011;61865;50.232;18.614;2023-02-08T05:03:20;70.50;;;35.25;;
73585;SDS011;61865;50.232;18.614;2023-02-08T05:05:42;65.22;;;33.45;;
73585;SDS011;61865;50.232;18.614;2023-02-08T05:08:04;65.18;;;33.30;;
73585;SDS011;61865;50.232;18.614;2023-02-08T05:10:26;59.17;;;31.35;;
73585;SDS011;61865;50.232;18.614;2023-02-08T05:12:48;61.17;;;30.52;;
73585;SDS011;61865;50.232;18.614;2023-02-08T05:15:11;60.20;;;32.45;;
73585;SDS011;61865;50.232;18.614;2023-02-08T05:17:33;60.15;;;33.50;;
73585;SDS011;61865;50.232;18.614;2023-02-08T05:19:55;63.58;;;32.55;;
73585;SDS011;61865;50.232;18.614;2023-02-08T05:22:17;73.20;;;32.25;;
73585;SDS011;61865;50.232;18.614;2023-02-08T05:24:39;64.80;;;33.53;;
73585;SDS011;61865;50.232;18.614;2023-02-08T05:27:01;61.30;;;33.33;;
73585;SDS011;61865;50.232;18.614;2023-02-08T05:29:23;60.88;;;32.45;;
73585;SDS011;61865;50.232;18.614;2023-02-08T05:31:46;63.30;;;33.00;;
73585;SDS011;61865;50.232;18.614;2023-02-08T05:34:08;59.60;;;30.60;;
73585;SDS011;61865;50.232;18.614;2023-02-08T05:36:31;54.63;;;30.48;;
73585;SDS011;61865;50.232;18.614;2023-02-08T05:38:53;53.85;;;28.70;;
73585;SDS011;61865;50.232;18.614;2023-02-08T05:41:15;56.90;;;29.00;;
73585;SDS011;61865;50.232;18.614;2023-02-08T05:43:37;65.63;;;31.35;;
73585;SDS011;61865;50.232;18.614;2023-02-08T05:45:59;58.45;;;29.77;;
73585;SDS011;61865;50.232;18.614;2023-02-08T05:48:22;51.88;;;28.35;;
73585;SDS011;61865;50.232;18.614;2023-02-08T05:50:44;52.25;;;27.85;;
73585;SDS011;61865;50.232;18.614;2023-02-08T05:53:06;49.00;;;26.15;;
73585;SDS011;61865;50.232;18.614;2023-02-08T05:55:28;49.72;;;27.80;;
73585;SDS011;61865;50.232;18.614;2023-02-08T05:57:50;52.13;;;27.02;;
73585;SDS011;61865;50.232;18.614;2023-02-08T06:00:12;46.10;;;26.25;;
73585;SDS011;61865;50.232;18.614;2023-02-08T06:02:35;49.75;;;26.92;;
73585;SDS011;61865;50.232;18.614;2023-02-08T06:04:58;47.97;;;26.75;;
73585;SDS011;61865;50.232;18.614;2023-02-08T06:07:20;50.97;;;26.60;;
73585;SDS011;61865;50.232;18.614;2023-02-08T06:09:42;50.20;;;27.35;;
73585;SDS011;61865;50.232;18.614;2023-02-08T06:12:04;51.80;;;27.58;;
73585;SDS011;61865;50.232;18.614;2023-02-08T06:14:26;52.80;;;27.73;;
73585;SDS011;61865;50.232;18.614;2023-02-08T06:16:48;50.25;;;27.20;;
73585;SDS011;61865;50.232;18.614;2023-02-08T06:19:10;51.53;;;27.65;;
73585;SDS011;61865;50.232;18.614;2023-02-08T06:21:33;62.13;;;30.98;;
73585;SDS011;61865;50.232;18.614;2023-02-08T06:23:55;57.03;;;29.25;;
73585;SDS011;61865;50.232;18.614;2023-02-08T06:26:17;53.55;;;27.85;;
73585;SDS011;61865;50.232;18.614;2023-02-08T06:28:39;62.88;;;28.88;;
73585;SDS011;61865;50.232;18.614;2023-02-08T06:31:01;69.80;;;29.75;;
73585;SDS011;61865;50.232;18.614;2023-02-08T06:33:23;63.50;;;30.00;;
73585;SDS011;61865;50.232;18.614;2023-02-08T06:35:45;58.47;;;30.58;;
73585;SDS011;61865;50.232;18.614;2023-02-08T06:38:09;65.32;;;31.20;;
73585;SDS011;61865;50.232;18.614;2023-02-08T06:40:31;58.20;;;29.48;;
73585;SDS011;61865;50.232;18.614;2023-02-08T06:42:53;53.15;;;29.20;;
73585;SDS011;61865;50.232;18.614;2023-02-08T06:45:15;49.92;;;26.98;;
73585;SDS011;61865;50.232;18.614;2023-02-08T06:47:37;59.42;;;27.75;;
73585;SDS011;61865;50.232;18.614;2023-02-08T06:49:59;58.30;;;28.13;;
73585;SDS011;61865;50.232;18.614;2023-02-08T06:52:21;58.30;;;27.15;;
73585;SDS011;61865;50.232;18.614;2023-02-08T06:54:44;64.60;;;29.60;;
73585;SDS011;61865;50.232;18.614;2023-02-08T06:57:06;60.47;;;30.05;;
73585;SDS011;61865;50.232;18.614;2023-02-08T06:59:28;61.42;;;30.90;;
73585;SDS011;61865;50.232;18.614;2023-02-08T07:01:50;55.83;;;29.65;;
73585;SDS011;61865;50.232;18.614;2023-02-08T07:04:12;55.38;;;28.23;;
73585;SDS011;61865;50.232;18.614;2023-02-08T07:06:34;53.63;;;27.95;;
73585;SDS011;61865;50.232;18.614;2023-02-08T07:08:56;55.38;;;27.80;;
73585;SDS011;61865;50.232;18.614;2023-02-08T07:11:19;58.65;;;30.13;;
73585;SDS011;61865;50.232;18.614;2023-02-08T07:13:41;51.85;;;30.42;;
73585;SDS011;61865;50.232;18.614;2023-02-08T07:16:07;53.13;;;28.33;;
73585;SDS011;61865;50.232;18.614;2023-02-08T07:18:29;56.22;;;29.02;;
73585;SDS011;61865;50.232;18.614;2023-02-08T07:20:51;46.95;;;28.50;;
73585;SDS011;61865;50.232;18.614;2023-02-08T07:23:13;54.40;;;28.58;;
73585;SDS011;61865;50.232;18.614;2023-02-08T07:25:35;62.25;;;30.73;;
73585;SDS011;61865;50.232;18.614;2023-02-08T07:27:58;53.38;;;29.23;;
73585;SDS011;61865;50.232;18.614;2023-02-08T07:30:20;70.57;;;34.38;;
73585;SDS011;61865;50.232;18.614;2023-02-08T07:32:42;57.65;;;31.85;;
73585;SDS011;61865;50.232;18.614;2023-02-08T07:35:04;61.50;;;31.98;;
73585;SDS011;61865;50.232;18.614;2023-02-08T07:37:27;59.00;;;31.88;;
73585;SDS011;61865;50.232;18.614;2023-02-08T07:39:48;59.38;;;32.70;;
73585;SDS011;61865;50.232;18.614;2023-02-08T07:42:10;51.83;;;28.42;;
73585;SDS011;61865;50.232;18.614;2023-02-08T07:44:35;55.47;;;30.67;;
73585;SDS011;61865;50.232;18.614;2023-02-08T07:46:57;51.85;;;30.35;;
73585;SDS011;61865;50.232;18.614;2023-02-08T07:49:20;52.15;;;28.25;;
73585;SDS011;61865;50.232;18.614;2023-02-08T07:51:42;57.00;;;29.52;;
73585;SDS011;61865;50.232;18.614;2023-02-08T07:54:04;52.55;;;28.65;;
73585;SDS011;61865;50.232;18.614;2023-02-08T07:56:26;58.92;;;29.45;;
73585;SDS011;61865;50.232;18.614;2023-02-08T07:58:48;54.00;;;27.40;;
73585;SDS011;61865;50.232;18.614;2023-02-08T08:01:11;60.17;;;31.27;;
73585;SDS011;61865;50.232;18.614;2023-02-08T08:03:33;67.95;;;30.80;;
73585;SDS011;61865;50.232;18.614;2023-02-08T08:05:55;51.88;;;30.63;;
73585;SDS011;61865;50.232;18.614;2023-02-08T08:08:17;58.83;;;29.05;;
73585;SDS011;61865;50.232;18.614;2023-02-08T08:10:39;48.58;;;27.30;;
73585;SDS011;61865;50.232;18.614;2023-02-08T08:13:01;50.08;;;26.88;;
73585;SDS011;61865;50.232;18.614;2023-02-08T08:15:23;44.80;;;26.55;;
73585;SDS011;61865;50.232;18.614;2023-02-08T08:17:46;47.67;;;25.02;;
73585;SDS011;61865;50.232;18.614;2023-02-08T08:20:08;51.72;;;25.33;;
73585;SDS011;61865;50.232;18.614;2023-02-08T08:22:31;39.88;;;22.45;;
73585;SDS011;61865;50.232;18.614;2023-02-08T08:24:52;42.88;;;22.55;;
73585;SDS011;61865;50.232;18.614;2023-02-08T08:27:14;33.35;;;19.15;;
73585;SDS011;61865;50.232;18.614;2023-02-08T08:29:37;37.47;;;16.58;;
73585;SDS011;61865;50.232;18.614;2023-02-08T08:31:59;32.53;;;17.42;;
73585;SDS011;61865;50.232;18.614;2023-02-08T08:34:22;36.78;;;18.70;;
73585;SDS011;61865;50.232;18.614;2023-02-08T08:36:48;38.78;;;20.48;;
73585;SDS011;61865;50.232;18.614;2023-02-08T08:39:10;36.78;;;18.45;;
73585;SDS011;61865;50.232;18.614;2023-02-08T08:41:32;35.35;;;17.88;;
73585;SDS011;61865;50.232;18.614;2023-02-08T08:43:55;33.88;;;17.42;;
73585;SDS011;61865;50.232;18.614;2023-02-08T08:46:17;26.52;;;17.27;;
73585;SDS011;61865;50.232;18.614;2023-02-08T08:48:40;32.63;;;17.55;;
73585;SDS011;61865;50.232;18.614;2023-02-08T08:51:03;39.83;;;19.05;;
73585;SDS011;61865;50.232;18.614;2023-02-08T08:53:26;37.10;;;19.38;;
73585;SDS011;61865;50.232;18.614;2023-02-08T08:55:48;36.22;;;19.98;;
73585;SDS011;61865;50.232;18.614;2023-02-08T08:58:10;31.08;;;18.13;;
73585;SDS011;61865;50.232;18.614;2023-02-08T09:00:32;32.75;;;19.33;;
73585;SDS011;61865;50.232;18.614;2023-02-08T09:02:53;33.20;;;17.17;;
73585;SDS011;61865;50.232;18.614;2023-02-08T09:05:15;39.58;;;20.27;;
73585;SDS011;61865;50.232;18.614;2023-02-08T09:07:39;35.08;;;19.23;;
73585;SDS011;61865;50.232;18.614;2023-02-08T09:10:01;39.50;;;18.85;;
73585;SDS011;61865;50.232;18.614;2023-02-08T09:12:23;35.20;;;18.67;;
73585;SDS011;61865;50.232;18.614;2023-02-08T09:14:45;34.17;;;19.17;;
73585;SDS011;61865;50.232;18.614;2023-02-08T09:17:07;31.45;;;17.95;;
73585;SDS011;61865;50.232;18.614;2023-02-08T09:19:28;36.67;;;19.58;;
73585;SDS011;61865;50.232;18.614;2023-02-08T09:21:50;35.90;;;19.63;;
73585;SDS011;61865;50.232;18.614;2023-02-08T09:24:14;36.30;;;19.08;;
73585;SDS011;61865;50.232;18.614;2023-02-08T09:26:37;34.58;;;19.38;;
73585;SDS011;61865;50.232;18.614;2023-02-08T09:28:59;33.08;;;18.33;;
73585;SDS011;61865;50.232;18.614;2023-02-08T09:31:22;36.72;;;18.50;;
73585;SDS011;61865;50.232;18.614;2023-02-08T09:33:45;30.60;;;17.90;;
73585;SDS011;61865;50.232;18.614;2023-02-08T09:36:07;43.58;;;19.27;;
73585;SDS011;61865;50.232;18.614;2023-02-08T09:38:30;33.22;;;17.55;;
73585;SDS011;61865;50.232;18.614;2023-02-08T09:40:56;37.28;;;19.23;;
73585;SDS011;61865;50.232;18.614;2023-02-08T09:43:29;35.72;;;17.50;;
73585;SDS011;61865;50.232;18.614;2023-02-08T09:46:01;41.58;;;19.77;;
73585;SDS011;61865;50.232;18.614;2023-02-08T09:48:30;33.08;;;18.77;;
73585;SDS011;61865;50.232;18.614;2023-02-08T09:50:55;35.90;;;19.05;;
73585;SDS011;61865;50.232;18.614;2023-02-08T09:53:20;33.10;;;17.85;;
73585;SDS011;61865;50.232;18.614;2023-02-08T09:55:46;30.15;;;16.20;;
73585;SDS011;61865;50.232;18.614;2023-02-08T09:58:14;31.92;;;17.73;;
73585;SDS011;61865;50.232;18.614;2023-02-08T10:00:40;25.42;;;14.30;;
73585;SDS011;61865;50.232;18.614;2023-02-08T10:03:05;35.45;;;17.30;;
73585;SDS011;61865;50.232;18.614;2023-02-08T10:05:39;28.83;;;15.80;;
73585;SDS011;61865;50.232;18.614;2023-02-08T10:08:01;33.80;;;16.70;;
73585;SDS011;61865;50.232;18.614;2023-02-08T10:10:28;28.55;;;15.50;;
73585;SDS011;61865;50.232;18.614;2023-02-08T10:12:59;33.33;;;16.58;;
73585;SDS011;61865;50.232;18.614;2023-02-08T10:15:32;31.55;;;16.48;;
73585;SDS011;61865;50.232;18.614;2023-02-08T10:18:07;37.88;;;15.48;;
73585;SDS011;61865;50.232;18.614;2023-02-08T10:20:42;28.60;;;15.85;;
73585;SDS011;61865;50.232;18.614;2023-02-08T10:23:20;31.13;;;16.80;;
73585;SDS011;61865;50.232;18.614;2023-02-08T10:26:02;28.50;;;16.13;;
73585;SDS011;61865;50.232;18.614;2023-02-08T10:28:35;29.17;;;14.07;;
73585;SDS011;61865;50.232;18.614;2023-02-08T10:31:27;32.67;;;16.70;;
73585;SDS011;61865;50.232;18.614;2023-02-08T10:34:00;29.75;;;13.77;;
73585;SDS011;61865;50.232;18.614;2023-02-08T10:36:24;32.30;;;15.00;;
73585;SDS011;61865;50.232;18.614;2023-02-08T10:38:50;30.65;;;14.57;;
73585;SDS011;61865;50.232;18.614;2023-02-08T10:41:15;31.42;;;15.02;;
73585;SDS011;61865;50.232;18.614;2023-02-08T10:43:41;31.15;;;14.45;;
73585;SDS011;61865;50.232;18.614;2023-02-08T10:46:09;24.48;;;14.10;;
73585;SDS011;61865;50.232;18.614;2023-02-08T10:51:23;33.03;;;15.25;;
73585;SDS011;61865;50.232;18.614;2023-02-08T10:53:46;31.38;;;14.68;;
73585;SDS011;61865;50.232;18.614;2023-02-08T10:56:10;26.17;;;14.38;;
73585;SDS011;61865;50.232;18.614;2023-02-08T10:59:05;33.40;;;16.63;;
73585;SDS011;61865;50.232;18.614;2023-02-08T11:01:35;26.63;;;14.73;;
73585;SDS011;61865;50.232;18.614;2023-02-08T11:04:01;23.58;;;13.40;;
73585;SDS011;61865;50.232;18.614;2023-02-08T11:06:25;26.67;;;12.90;;
73585;SDS011;61865;50.232;18.614;2023-02-08T11:08:53;27.63;;;12.98;;
73585;SDS011;61865;50.232;18.614;2023-02-08T11:11:17;26.88;;;15.27;;
73585;SDS011;61865;50.232;18.614;2023-02-08T11:13:40;26.70;;;14.07;;
73585;SDS011;61865;50.232;18.614;2023-02-08T11:16:03;20.70;;;12.45;;
73585;SDS011;61865;50.232;18.614;2023-02-08T11:18:27;25.27;;;12.73;;
73585;SDS011;61865;50.232;18.614;2023-02-08T11:20:54;23.58;;;13.07;;
73585;SDS011;61865;50.232;18.614;2023-02-08T11:23:19;27.00;;;13.02;;
73585;SDS011;61865;50.232;18.614;2023-02-08T11:25:46;25.75;;;13.73;;
73585;SDS011;61865;50.232;18.614;2023-02-08T11:28:20;29.55;;;14.52;;
73585;SDS011;61865;50.232;18.614;2023-02-08T11:30:53;24.60;;;12.43;;
73585;SDS011;61865;50.232;18.614;2023-02-08T11:33:17;20.33;;;10.80;;
73585;SDS011;61865;50.232;18.614;2023-02-08T11:35:42;40.65;;;15.60;;
73585;SDS011;61865;50.232;18.614;2023-02-08T11:38:16;29.92;;;14.05;;
73585;SDS011;61865;50.232;18.614;2023-02-08T11:40:46;26.13;;;13.90;;
73585;SDS011;61865;50.232;18.614;2023-02-08T11:43:15;25.88;;;13.75;;
73585;SDS011;61865;50.232;18.614;2023-02-08T11:45:41;26.73;;;13.10;;
73585;SDS011;61865;50.232;18.614;2023-02-08T11:48:13;20.90;;;12.05;;
73585;SDS011;61865;50.232;18.614;2023-02-08T11:50:43;21.40;;;11.48;;
73585;SDS011;61865;50.232;18.614;2023-02-08T11:53:05;20.38;;;11.45;;
73585;SDS011;61865;50.232;18.614;2023-02-08T11:55:41;23.58;;;12.10;;
73585;SDS011;61865;50.232;18.614;2023-02-08T11:58:03;20.95;;;12.07;;
73585;SDS011;61865;50.232;18.614;2023-02-08T12:00:38;27.85;;;12.10;;
73585;SDS011;61865;50.232;18.614;2023-02-08T12:03:01;22.80;;;11.75;;
73585;SDS011;61865;50.232;18.614;2023-02-08T12:05:28;19.77;;;11.88;;
73585;SDS011;61865;50.232;18.614;2023-02-08T12:07:58;20.60;;;11.20;;
73585;SDS011;61865;50.232;18.614;2023-02-08T12:13:29;25.38;;;12.75;;
73585;SDS011;61865;50.232;18.614;2023-02-08T12:16:10;20.75;;;12.43;;
73585;SDS011;61865;50.232;18.614;2023-02-08T12:18:48;20.67;;;12.35;;
73585;SDS011;61865;50.232;18.614;2023-02-08T12:21:20;23.30;;;12.07;;
73585;SDS011;61865;50.232;18.614;2023-02-08T12:23:46;18.85;;;10.55;;
73585;SDS011;61865;50.232;18.614;2023-02-08T12:26:16;22.08;;;11.80;;
73585;SDS011;61865;50.232;18.614;2023-02-08T12:28:51;22.02;;;10.35;;
73585;SDS011;61865;50.232;18.614;2023-02-08T12:31:22;20.10;;;10.70;;
73585;SDS011;61865;50.232;18.614;2023-02-08T12:33:55;21.65;;;11.18;;
73585;SDS011;61865;50.232;18.614;2023-02-08T12:36:38;20.92;;;10.75;;
73585;SDS011;61865;50.232;18.614;2023-02-08T12:39:11;24.55;;;12.75;;
73585;SDS011;61865;50.232;18.614;2023-02-08T12:42:07;27.05;;;13.38;;
73585;SDS011;61865;50.232;18.614;2023-02-08T12:44:48;27.63;;;13.45;;
73585;SDS011;61865;50.232;18.614;2023-02-08T12:47:28;21.30;;;12.20;;
73585;SDS011;61865;50.232;18.614;2023-02-08T12:50:02;24.83;;;12.70;;
73585;SDS011;61865;50.232;18.614;2023-02-08T12:52:34;21.77;;;11.40;;
73585;SDS011;61865;50.232;18.614;2023-02-08T12:54:59;27.70;;;13.95;;
73585;SDS011;61865;50.232;18.614;2023-02-08T12:57:26;21.10;;;11.65;;
73585;SDS011;61865;50.232;18.614;2023-02-08T12:59:52;21.75;;;12.40;;
73585;SDS011;61865;50.232;18.614;2023-02-08T13:02:18;22.95;;;12.45;;
73585;SDS011;61865;50.232;18.614;2023-02-08T13:04:45;22.30;;;12.07;;
73585;SDS011;61865;50.232;18.614;2023-02-08T13:07:11;19.35;;;11.35;;
73585;SDS011;61865;50.232;18.614;2023-02-08T13:09:38;23.75;;;11.93;;
73585;SDS011;61865;50.232;18.614;2023-02-08T13:12:05;20.77;;;11.55;;
73585;SDS011;61865;50.232;18.614;2023-02-08T13:14:34;25.05;;;12.73;;
73585;SDS011;61865;50.232;18.614;2023-02-08T13:17:02;20.13;;;11.57;;
73585;SDS011;61865;50.232;18.614;2023-02-08T13:19:27;19.15;;;10.85;;
73585;SDS011;61865;50.232;18.614;2023-02-08T13:21:52;21.58;;;11.50;;
73585;SDS011;61865;50.232;18.614;2023-02-08T13:24:18;20.40;;;11.50;;
73585;SDS011;61865;50.232;18.614;2023-02-08T13:26:48;29.65;;;11.65;;
73585;SDS011;61865;50.232;18.614;2023-02-08T13:29:13;20.77;;;11.65;;
73585;SDS011;61865;50.232;18.614;2023-02-08T13:31:39;19.85;;;11.68;;
73585;SDS011;61865;50.232;18.614;2023-02-08T13:34:04;17.42;;;10.45;;
73585;SDS011;61865;50.232;18.614;2023-02-08T13:36:33;22.15;;;12.18;;
73585;SDS011;61865;50.232;18.614;2023-02-08T13:38:57;20.52;;;11.18;;
73585;SDS011;61865;50.232;18.614;2023-02-08T13:41:20;21.40;;;10.55;;
73585;SDS011;61865;50.232;18.614;2023-02-08T13:43:45;19.60;;;10.65;;
73585;SDS011;61865;50.232;18.614;2023-02-08T13:46:11;19.85;;;10.88;;
73585;SDS011;61865;50.232;18.614;2023-02-08T13:48:41;25.88;;;11.98;;
73585;SDS011;61865;50.232;18.614;2023-02-08T13:56:36;21.52;;;10.52;;
73585;SDS011;61865;50.232;18.614;2023-02-08T13:59:00;21.92;;;12.75;;
73585;SDS011;61865;50.232;18.614;2023-02-08T14:01:22;16.42;;;10.75;;
73585;SDS011;61865;50.232;18.614;2023-02-08T14:06:50;22.27;;;10.82;;
73585;SDS011;61865;50.232;18.614;2023-02-08T14:09:19;23.00;;;10.80;;
73585;SDS011;61865;50.232;18.614;2023-02-08T14:11:45;23.50;;;11.05;;
73585;SDS011;61865;50.232;18.614;2023-02-08T14:14:12;22.25;;;11.95;;
73585;SDS011;61865;50.232;18.614;2023-02-08T14:16:37;20.55;;;10.50;;